Time;durP1;ratioP1;P1;durP2;ratioP2;P2;SDS_P1;SDS_P2;PMS_P1;PMS_P2;Temp;Humidity;BMP_temperature;BMP_pressure;BME280_temperature;BME280_humidity;BME280_pressure;Samples;Min_cycle;Max_cycle;Signal;HPM_P1;HPM_P2
2022/03/17 00:00:13;;;;;;;8.90;7.75;;;;;;;1.70;50.49;100875.48;1709875;83;20943;-63
2022/03/17 00:02:41;;;;;;;5.67;4.37;;;;;;;1.68;50.54;100883.45;1710859;83;20998;-65
2022/03/17 00:05:10;;;;;;;4.65;4.08;;;;;;;1.65;50.52;100882.30;1699209;83;21259;-63
2022/03/17 00:07:39;;;;;;;3.92;2.98;;;;;;;1.63;50.59;100882.84;1711632;83;20945;-63
2022/03/17 00:10:14;;;;;;;4.55;3.08;;;;;;;1.61;50.62;100887.33;1711474;83;20968;-63
2022/03/17 00:12:46;;;;;;;4.20;3.17;;;;;;;1.60;50.64;100886.94;1711747;83;21493;-63
2022/03/17 00:15:14;;;;;;;4.22;2.70;;;;;;;1.59;50.72;100890.96;1698038;83;20951;-63
2022/03/17 00:17:42;;;;;;;2.95;2.47;;;;;;;1.57;50.72;100896.73;1711300;83;21901;-63
2022/03/17 00:20:11;;;;;;;4.62;2.50;;;;;;;1.56;50.85;100898.98;1705434;83;20927;-63
2022/03/17 00:22:39;;;;;;;4.35;2.00;;;;;;;1.54;51.00;100899.05;1710816;83;21084;-63
2022/03/17 00:25:08;;;;;;;4.10;2.55;;;;;;;1.54;51.07;100907.41;1702553;83;21021;-63
2022/03/17 00:27:35;;;;;;;2.85;2.30;;;;;;;1.51;51.13;100903.62;1710634;83;21019;-63
2022/03/17 00:30:05;;;;;;;3.22;2.33;;;;;;;1.49;51.19;100902.83;1709793;83;21263;-63
2022/03/17 00:32:34;;;;;;;4.58;2.58;;;;;;;1.45;51.30;100912.65;1713361;83;20884;-64
2022/03/17 00:37:48;;;;;;;7.47;2.30;;;;;;;1.42;51.61;100905.39;1711492;83;20915;-64
2022/03/17 00:40:15;;;;;;;3.47;2.22;;;;;;;1.39;51.92;100911.64;1714598;83;20986;-63
2022/03/17 00:42:42;;;;;;;4.80;2.40;;;;;;;1.36;52.01;100909.16;1704143;83;22201;-63
2022/03/17 00:45:10;;;;;;;3.02;2.22;;;;;;;1.34;52.15;100903.61;1714436;83;20919;-63
2022/03/17 00:47:38;;;;;;;4.80;2.37;;;;;;;1.30;52.32;100906.88;1718566;83;21513;-63
2022/03/17 00:50:07;;;;;;;2.90;2.25;;;;;;;1.27;52.48;100908.34;1707129;83;20954;-63
2022/03/17 00:52:34;;;;;;;3.47;2.30;;;;;;;1.23;52.76;100910.25;1668325;85;21155;-63
2022/03/17 00:55:05;;;;;;;2.98;2.33;;;;;;;1.19;53.02;100917.90;1713966;83;21261;-63
2022/03/17 00:57:32;;;;;;;2.50;2.08;;;;;;;1.14;53.37;100918.59;1708619;83;21429;-63
2022/03/17 00:59:59;;;;;;;3.87;2.33;;;;;;;1.09;53.60;100917.97;1717812;83;21003;-64
2022/03/17 01:02:27;;;;;;;2.80;2.30;;;;;;;1.03;53.94;100914.79;1682258;83;21077;-64
2022/03/17 01:04:54;;;;;;;3.60;2.55;;;;;;;0.99;54.13;100923.74;1712134;83;20860;-61
2022/03/17 01:07:21;;;;;;;3.55;2.10;;;;;;;0.94;54.50;100914.77;1707134;83;21328;-63
2022/03/17 01:09:48;;;;;;;4.33;2.50;;;;;;;0.89;54.70;100916.77;1718519;83;21500;-63
2022/03/17 01:12:17;;;;;;;4.05;2.45;;;;;;;0.84;54.93;100917.45;1711489;83;21033;-63
2022/03/17 01:14:47;;;;;;;3.10;2.60;;;;;;;0.79;55.20;100922.07;1718603;83;21422;-63
2022/03/17 01:17:15;;;;;;;3.42;2.52;;;;;;;0.74;55.40;100917.97;1711839;83;21053;-62
2022/03/17 01:19:42;;;;;;;2.92;2.50;;;;;;;0.69;55.61;100923.44;1718517;83;21357;-63
2022/03/17 01:22:11;;;;;;;4.15;2.25;;;;;;;0.65;55.84;100921.91;1711924;83;20898;-63
2022/03/17 01:24:39;;;;;;;2.87;2.12;;;;;;;0.61;55.98;100919.02;1718429;83;21527;-62
2022/03/17 01:27:06;;;;;;;2.55;2.10;;;;;;;0.60;56.13;100920.78;1717444;83;21010;-62
2022/03/17 01:29:33;;;;;;;3.42;2.20;;;;;;;0.56;56.28;100927.56;1707001;83;20939;-62
2022/03/17 01:32:00;;;;;;;4.42;2.33;;;;;;;0.53;56.45;100930.31;1711045;83;22153;-63
2022/03/17 01:34:28;;;;;;;3.75;2.50;;;;;;;0.50;56.62;100927.84;1712780;83;21477;-63
2022/03/17 01:36:55;;;;;;;6.03;2.37;;;;;;;0.46;56.83;100927.61;1718695;83;20954;-63
2022/03/17 01:39:23;;;;;;;3.85;2.42;;;;;;;0.45;56.88;100928.52;1702848;83;21548;-63
2022/03/17 01:41:50;;;;;;;4.20;2.50;;;;;;;0.41;57.06;100926.98;1714110;83;21046;-63
2022/03/17 01:44:19;;;;;;;2.37;1.90;;;;;;;0.37;57.22;100926.26;1716911;83;21290;-63
2022/03/17 01:49:32;;;;;;;2.62;2.30;;;;;;;0.29;57.47;100930.14;1712989;83;23895;-64
2022/03/17 01:51:59;;;;;;;3.40;2.60;;;;;;;0.27;57.67;100934.16;1717728;83;20970;-63
2022/03/17 01:54:28;;;;;;;4.17;2.75;;;;;;;0.22;57.86;100937.44;1697111;83;21449;-64
2022/03/17 01:56:55;;;;;;;3.00;2.27;;;;;;;0.20;58.00;100939.73;1717708;83;21291;-63
2022/03/17 01:59:22;;;;;;;3.20;2.30;;;;;;;0.15;58.35;100943.03;1711092;83;20931;-63
2022/03/17 02:01:50;;;;;;;2.85;2.12;;;;;;;0.12;58.49;100941.85;1718531;83;21473;-63
2022/03/17 02:04:17;;;;;;;3.47;2.47;;;;;;;0.11;58.51;100941.00;1717532;83;20947;-62
2022/03/17 02:06:45;;;;;;;5.03;2.90;;;;;;;0.09;58.59;100944.15;1718590;83;20918;-64
2022/03/17 02:09:13;;;;;;;3.98;2.70;;;;;;;0.08;58.70;100943.75;1709732;83;20867;-62
2022/03/17 02:14:34;;;;;;;3.72;2.55;;;;;;;0.05;58.87;100956.14;1718343;83;21039;-63
2022/03/17 02:17:00;;;;;;;3.33;2.58;;;;;;;0.03;58.82;100952.75;1703086;83;20982;-65
2022/03/17 02:19:27;;;;;;;3.95;2.50;;;;;;;0.04;58.89;100963.59;1691219;83;20999;-64
2022/03/17 02:21:55;;;;;;;3.98;2.90;;;;;;;0.04;58.86;100962.28;1713584;83;21289;-63
2022/03/17 02:27:05;;;;;;;3.80;2.95;;;;;;;0.00;59.04;100966.81;1683589;83;20983;-64
2022/03/17 02:29:32;;;;;;;3.62;2.50;;;;;;;-0.02;59.08;100973.41;1718160;83;20939;-62
2022/03/17 02:31:59;;;;;;;2.95;2.30;;;;;;;-0.03;59.10;100975.62;1717981;83;20994;-64
2022/03/17 02:34:26;;;;;;;3.90;2.62;;;;;;;-0.04;59.13;100976.56;1696334;83;21807;-64
2022/03/17 02:36:54;;;;;;;3.65;2.77;;;;;;;-0.03;59.11;100979.55;1718359;83;20891;-63
2022/03/17 02:39:21;;;;;;;4.53;3.02;;;;;;;-0.03;59.11;100979.55;1717617;83;20998;-63
2022/03/17 02:41:49;;;;;;;4.72;2.62;;;;;;;-0.03;59.06;100983.95;1701786;83;21560;-63
2022/03/17 02:44:16;;;;;;;3.87;2.67;;;;;;;-0.03;59.01;100986.09;1695787;83;21037;-63
2022/03/17 02:46:43;;;;;;;6.42;3.15;;;;;;;-0.03;59.02;100994.42;1692638;83;21268;-62
2022/03/17 02:49:15;;;;;;;4.67;2.75;;;;;;;-0.04;59.00;100996.18;1715096;83;21450;-62
2022/03/17 02:51:39;;;;;;;2.87;2.35;;;;;;;-0.04;59.04;101000.11;1717978;83;20967;-64
2022/03/17 02:54:08;;;;;;;3.98;2.67;;;;;;;-0.03;58.99;101006.20;1717629;83;20931;-62
2022/03/17 02:56:36;;;;;;;3.83;2.55;;;;;;;-0.04;59.01;101004.48;1718380;83;20966;-63
2022/03/17 02:59:03;;;;;;;4.35;3.10;;;;;;;-0.05;59.01;101008.00;1715953;83;21155;-63
2022/03/17 03:01:30;;;;;;;5.00;3.12;;;;;;;-0.08;58.98;101005.55;1718330;83;20887;-63
2022/03/17 03:03:58;;;;;;;4.00;2.85;;;;;;;-0.11;58.96;101005.22;1718432;83;20918;-62
2022/03/17 03:06:25;;;;;;;3.62;2.70;;;;;;;-0.10;58.89;101009.52;1695885;83;21506;-63
2022/03/17 03:08:53;;;;;;;3.60;2.67;;;;;;;-0.11;58.81;101010.45;1718364;83;20856;-63
2022/03/17 03:11:20;;;;;;;4.15;2.58;;;;;;;-0.10;58.79;101019.13;1717630;83;21264;-63
2022/03/17 03:13:48;;;;;;;3.70;3.15;;;;;;;-0.09;58.70;101027.37;1718414;83;21030;-64
2022/03/17 03:16:15;;;;;;;5.27;2.93;;;;;;;-0.07;58.61;101028.16;1696798;83;21422;-63
2022/03/17 03:18:44;;;;;;;2.90;2.62;;;;;;;-0.08;58.58;101036.94;1712024;83;20943;-63
2022/03/17 03:21:13;;;;;;;3.60;3.02;;;;;;;-0.09;58.60;101040.45;1705412;83;20880;-62
2022/03/17 03:23:40;;;;;;;4.33;2.37;;;;;;;-0.08;58.57;101041.69;1718492;83;21262;-62
2022/03/17 03:26:07;;;;;;;3.50;2.35;;;;;;;-0.13;58.67;101042.34;1705930;83;21524;-62
2022/03/17 03:28:36;;;;;;;3.42;2.40;;;;;;;-0.15;58.71;101044.63;1718234;83;21070;-62
2022/03/17 03:31:05;;;;;;;3.67;2.60;;;;;;;-0.15;58.72;101051.17;1709831;83;21465;-64
2022/03/17 03:33:34;;;;;;;5.47;3.20;;;;;;;-0.19;58.79;101051.78;1718230;83;20927;-63
2022/03/17 03:38:47;;;;;;;5.00;3.12;;;;;;;-0.22;58.85;101047.98;1718443;83;20979;-63
2022/03/17 03:41:15;;;;;;;3.70;2.95;;;;;;;-0.26;58.95;101051.63;1706042;83;20983;-63
2022/03/17 03:43:42;;;;;;;6.78;3.25;;;;;;;-0.28;58.99;101047.37;1718413;83;21070;-63
2022/03/17 03:46:10;;;;;;;4.03;3.00;;;;;;;-0.30;59.04;101051.38;1707044;83;21006;-65
2022/03/17 03:48:38;;;;;;;4.87;3.05;;;;;;;-0.32;59.08;101051.05;1700664;83;21287;-63
2022/03/17 03:51:06;;;;;;;4.95;3.45;;;;;;;-0.34;59.09;101053.70;1713973;83;20977;-63
2022/03/17 03:56:19;;;;;;;5.40;3.47;;;;;;;-0.37;59.18;101063.46;1707838;83;21013;-63
2022/03/17 03:58:47;;;;;;;5.60;3.08;;;;;;;-0.38;59.19;101057.37;1718453;83;20986;-62
2022/03/17 04:01:14;;;;;;;4.83;3.05;;;;;;;-0.38;59.24;101065.67;1717537;83;21288;-62
2022/03/17 04:03:42;;;;;;;4.35;3.30;;;;;;;-0.36;59.18;101071.69;1711195;83;21401;-62
2022/03/17 04:06:09;;;;;;;5.22;3.20;;;;;;;-0.36;59.11;101078.22;1706018;83;21004;-63
2022/03/17 04:08:38;;;;;;;4.97;3.12;;;;;;;-0.37;59.09;101073.92;1709259;83;21023;-63
2022/03/17 04:11:05;;;;;;;4.45;3.30;;;;;;;-0.37;59.08;101076.09;1706479;83;20942;-63
2022/03/17 04:13:32;;;;;;;3.98;3.20;;;;;;;-0.37;59.06;101080.02;1706245;83;22212;-63
2022/03/17 04:16:01;;;;;;;4.25;2.90;;;;;;;-0.38;59.02;101079.61;1708290;83;21528;-63
2022/03/17 04:18:28;;;;;;;3.40;3.00;;;;;;;-0.37;58.96;101081.31;1718634;83;20994;-62
2022/03/17 04:20:56;;;;;;;3.77;2.67;;;;;;;-0.38;58.98;101084.83;1718410;83;20911;-63
2022/03/17 04:23:25;;;;;;;3.85;2.75;;;;;;;-0.38;58.96;101088.75;1713082;83;20900;-63
2022/03/17 04:25:52;;;;;;;4.05;2.90;;;;;;;-0.38;58.98;101091.37;1704436;83;21852;-62
2022/03/17 04:28:19;;;;;;;5.25;3.08;;;;;;;-0.38;58.98;101095.30;1709777;83;20994;-63
2022/03/17 04:30:48;;;;;;;5.90;2.72;;;;;;;-0.40;59.02;101104.97;1718322;83;20986;-63
2022/03/17 04:33:17;;;;;;;4.70;3.10;;;;;;;-0.39;59.05;101112.37;1717180;83;21548;-62
2022/03/17 04:35:44;;;;;;;4.83;3.15;;;;;;;-0.33;59.16;101116.88;1705371;83;21075;-63
2022/03/17 04:38:11;;;;;;;6.45;3.12;;;;;;;-0.21;59.24;101120.28;1715290;83;21305;-64
2022/03/17 04:40:41;;;;;;;5.97;4.95;;;;;;;-0.02;59.24;101121.69;1718378;83;20939;-64
2022/03/17 04:43:07;;;;;;;8.25;6.60;;;;;;;0.21;59.03;101125.98;1717441;83;20934;-63
2022/03/17 04:45:34;;;;;;;10.53;6.45;;;;;;;0.45;58.71;101128.37;1707386;83;20899;-63
2022/03/17 04:48:01;;;;;;;9.73;7.10;;;;;;;0.75;58.35;101130.56;1717520;83;20975;-63
2022/03/17 04:50:29;;;;;;;8.25;6.33;;;;;;;1.07;57.60;101133.90;1718251;83;21266;-63
2022/03/17 04:55:42;;;;;;;5.12;3.80;;;;;;;1.68;56.16;101135.77;1707145;83;28216;-63
2022/03/17 04:58:11;;;;;;;5.20;3.75;;;;;;;2.03;55.20;101137.98;1707824;83;20956;-62
2022/03/17 05:00:38;;;;;;;3.58;3.25;;;;;;;2.33;54.22;101135.12;1698997;83;20998;-63
2022/03/17 05:03:05;;;;;;;4.67;3.45;;;;;;;2.63;53.56;101144.52;1697961;83;21313;-63
2022/03/17 05:05:32;;;;;;;7.20;3.50;;;;;;;2.92;52.48;101140.72;1716075;83;21405;-64
2022/03/17 05:08:00;;;;;;;4.50;3.30;;;;;;;3.22;51.71;101142.17;1712231;83;20998;-63
2022/03/17 05:10:28;;;;;;;4.37;3.08;;;;;;;3.54;51.16;101145.66;1696920;83;20998;-63
2022/03/17 05:12:56;;;;;;;4.53;3.17;;;;;;;3.90;50.41;101142.73;1703673;83;21021;-63
2022/03/17 05:15:24;;;;;;;5.00;3.35;;;;;;;4.27;49.62;101148.88;1717938;83;22510;-63
2022/03/17 05:17:52;;;;;;;4.12;3.20;;;;;;;4.64;48.69;101145.73;1708727;83;21592;-63
2022/03/17 05:20:19;;;;;;;3.80;2.92;;;;;;;4.99;47.49;101148.41;1702827;83;21070;-63
2022/03/17 05:22:47;;;;;;;4.67;3.42;;;;;;;5.29;46.44;101148.27;1710446;83;21489;-63
2022/03/17 05:25:16;;;;;;;4.97;3.08;;;;;;;5.60;45.95;101148.50;1717425;83;21006;-62
2022/03/17 05:27:44;;;;;;;4.62;3.75;;;;;;;5.92;45.08;101148.59;1708465;83;21270;-63
2022/03/17 05:30:13;;;;;;;6.00;4.30;;;;;;;6.19;44.52;101154.72;1700853;83;21003;-61
2022/03/17 05:32:43;;;;;;;7.58;3.87;;;;;;;6.53;43.71;101154.61;1718321;83;20880;-61
2022/03/17 05:35:11;;;;;;;4.28;3.27;;;;;;;6.80;42.90;101160.64;1717022;83;20974;-64
2022/03/17 05:37:40;;;;;;;6.12;3.60;;;;;;;7.12;42.10;101159.73;1716805;83;20950;-63
2022/03/17 05:40:15;;;;;;;7.25;3.65;;;;;;;7.41;41.21;101155.86;1701741;83;21240;-63
2022/03/17 05:42:44;;;;;;;4.50;3.22;;;;;;;7.68;40.99;101155.69;1710702;83;25071;-64
2022/03/17 05:45:12;;;;;;;4.20;3.17;;;;;;;8.02;40.25;101159.36;1717518;83;20923;-63
2022/03/17 05:47:46;;;;;;;3.20;2.67;;;;;;;8.35;39.67;101159.52;1718409;83;20903;-63
2022/03/17 05:50:14;;;;;;;3.47;2.75;;;;;;;8.60;38.88;101159.33;1707682;83;20899;-65
2022/03/17 05:52:42;;;;;;;2.67;2.47;;;;;;;8.85;37.88;101163.61;1718442;83;21284;-64
2022/03/17 05:55:12;;;;;;;3.85;2.98;;;;;;;9.09;37.79;101172.80;1717567;83;20982;-62
2022/03/17 05:57:41;;;;;;;3.47;3.12;;;;;;;9.31;36.76;101171.46;1718357;83;20927;-65
2022/03/17 06:00:11;;;;;;;4.85;3.10;;;;;;;9.39;35.30;101184.98;1712222;83;20975;-63
2022/03/17 06:02:38;;;;;;;3.70;3.15;;;;;;;9.30;35.15;101175.10;1718512;83;20995;-64
2022/03/17 06:05:07;;;;;;;3.50;2.80;;;;;;;9.24;35.49;101178.23;1717621;83;21354;-63
2022/03/17 06:07:43;;;;;;;3.15;2.52;;;;;;;9.23;35.01;101184.02;1718354;83;20892;-64
2022/03/17 06:10:15;;;;;;;5.08;2.80;;;;;;;9.20;35.34;101181.60;1700521;83;20990;-62
2022/03/17 06:12:46;;;;;;;3.95;2.87;;;;;;;9.37;35.51;101188.25;1708268;83;21461;-63
2022/03/17 06:15:14;;;;;;;4.15;3.33;;;;;;;9.58;34.88;101187.88;1716134;83;20899;-64
2022/03/17 06:17:44;;;;;;;3.62;2.70;;;;;;;9.75;34.52;101191.84;1698244;83;21915;-64
2022/03/17 06:20:14;;;;;;;3.58;2.80;;;;;;;9.92;34.09;101196.63;1712854;83;21303;-65
2022/03/17 06:22:44;;;;;;;3.47;2.70;;;;;;;10.06;33.25;101191.52;1709710;83;21422;-63
2022/03/17 06:25:14;;;;;;;4.12;3.08;;;;;;;10.20;33.00;101196.08;1714546;83;20931;-64
2022/03/17 06:27:43;;;;;;;3.58;2.83;;;;;;;10.34;33.10;101198.94;1707556;83;20903;-64
2022/03/17 06:30:22;;;;;;;3.10;2.80;;;;;;;10.58;32.84;101203.55;1669144;83;21263;-64
2022/03/17 06:32:50;;;;;;;3.40;2.58;;;;;;;10.80;31.70;101195.91;1718419;83;21521;-64
2022/03/17 06:35:20;;;;;;;3.33;2.55;;;;;;;10.94;32.02;101196.92;1711887;83;20970;-65
2022/03/17 06:37:51;;;;;;;3.10;2.70;;;;;;;11.19;31.66;101201.81;1718416;83;21287;-66
2022/03/17 06:40:18;;;;;;;5.30;2.77;;;;;;;11.39;30.92;101206.27;1717489;83;21667;-63
2022/03/17 06:42:46;;;;;;;3.20;2.47;;;;;;;11.59;31.06;101202.70;1711512;83;21864;-65
2022/03/17 06:45:14;;;;;;;4.25;2.70;;;;;;;11.85;30.75;101207.08;1697046;83;20980;-63
2022/03/17 06:47:41;;;;;;;2.95;2.47;;;;;;;12.07;29.86;101199.33;1693550;83;20954;-63
2022/03/17 06:50:10;;;;;;;3.50;2.50;;;;;;;12.28;29.51;101204.88;1696429;83;21052;-66
2022/03/17 06:52:37;;;;;;;4.58;2.70;;;;;;;12.55;29.50;101210.01;1699360;83;20966;-63
2022/03/17 06:55:06;;;;;;;3.20;2.58;;;;;;;12.78;28.17;101213.57;1706785;83;21423;-63
2022/03/17 06:57:34;;;;;;;2.33;1.92;;;;;;;12.77;27.31;101218.58;1718245;83;20888;-65
2022/03/17 07:00:06;;;;;;;4.10;2.35;;;;;;;12.76;27.82;101222.72;1717629;83;20900;-64
2022/03/17 07:02:33;;;;;;;3.52;2.58;;;;;;;12.88;27.85;101221.08;1718338;83;20907;-62
2022/03/17 07:05:02;;;;;;;2.22;2.02;;;;;;;13.09;27.27;101214.77;1717538;83;20926;-64
2022/03/17 07:07:29;;;;;;;3.40;2.45;;;;;;;13.25;26.61;101211.80;1718443;83;21263;-63
2022/03/17 07:09:56;;;;;;;2.25;2.05;;;;;;;13.42;26.34;101214.22;1718479;83;21002;-63
2022/03/17 07:12:25;;;;;;;3.25;2.55;;;;;;;13.63;26.18;101220.67;1718314;83;20915;-64
2022/03/17 07:14:53;;;;;;;2.37;2.12;;;;;;;13.73;25.73;101220.13;1718414;83;20915;-62
2022/03/17 07:17:22;;;;;;;2.30;2.10;;;;;;;13.58;25.08;101219.79;1717596;83;21127;-65
2022/03/17 07:22:21;;;;;;;2.15;1.92;;;;;;;13.64;25.16;101228.53;1706883;83;21540;-64
2022/03/17 07:24:49;;;;;;;3.00;2.50;;;;;;;13.61;24.89;101225.66;1713694;83;21540;-64
2022/03/17 07:27:16;;;;;;;2.25;2.05;;;;;;;13.60;25.05;101228.01;1713946;83;20900;-64
2022/03/17 07:29:44;;;;;;;2.80;1.92;;;;;;;13.67;24.39;101230.06;1718225;83;21398;-63
2022/03/17 07:32:11;;;;;;;4.35;2.25;;;;;;;13.67;23.31;101242.10;1706898;83;21906;-62
2022/03/17 07:34:38;;;;;;;3.62;2.25;;;;;;;13.39;23.21;101241.23;1677746;84;20995;-62
2022/03/17 07:37:06;;;;;;;2.20;2.00;;;;;;;13.13;23.19;101234.84;1714766;83;20939;-63
2022/03/17 07:39:33;;;;;;;2.55;2.10;;;;;;;12.84;24.02;101248.22;1715629;83;20892;-63
2022/03/17 07:42:01;;;;;;;2.33;2.12;;;;;;;12.63;23.97;101237.70;1715165;83;20895;-63
2022/03/17 07:44:30;;;;;;;3.22;2.22;;;;;;;12.60;24.58;101235.79;1710138;83;21150;-63
2022/03/17 07:47:08;;;;;;;2.37;2.17;;;;;;;12.80;24.93;101244.16;1676402;84;21109;-62
2022/03/17 07:49:42;;;;;;;5.00;2.15;;;;;;;13.01;24.78;101239.46;1686980;85;21004;-63
2022/03/17 07:52:13;;;;;;;3.47;2.25;;;;;;;13.24;24.49;101238.69;1683895;85;21067;-63
2022/03/17 07:54:42;;;;;;;19.98;3.40;;;;;;;13.55;24.56;101238.30;1684116;85;21071;-63
2022/03/17 07:57:10;;;;;;;2.50;2.30;;;;;;;13.89;23.38;101239.05;1688704;85;21243;-64
2022/03/17 07:59:38;;;;;;;3.27;1.80;;;;;;;14.05;20.99;101245.41;1687375;85;21031;-66
2022/03/17 08:02:05;;;;;;;3.12;1.75;;;;;;;13.91;20.86;101253.11;1688218;85;20899;-65
2022/03/17 08:04:36;;;;;;;2.30;1.67;;;;;;;13.74;20.75;101244.56;1689244;85;20923;-62
2022/03/17 08:07:04;;;;;;;2.92;1.90;;;;;;;13.61;20.35;101247.05;1665784;85;20952;-66
2022/03/17 08:09:31;;;;;;;2.15;1.62;;;;;;;13.44;20.66;101238.48;1687638;83;21280;-65
2022/03/17 08:11:59;;;;;;;2.27;1.25;;;;;;;13.51;20.00;101238.23;1688605;84;20994;-65
2022/03/17 08:14:26;;;;;;;1.85;1.67;;;;;;;13.43;19.60;101254.16;1689090;85;20989;-66
2022/03/17 08:16:54;;;;;;;1.95;1.47;;;;;;;13.31;20.25;101248.66;1688078;85;21097;-66
2022/03/17 08:19:22;;;;;;;1.60;1.40;;;;;;;13.29;19.74;101268.01;1689030;85;20946;-65
2022/03/17 08:21:50;;;;;;;1.90;1.52;;;;;;;13.18;19.66;101254.80;1688987;85;21378;-65
2022/03/17 08:24:17;;;;;;;2.72;1.80;;;;;;;13.13;20.45;101247.72;1688811;85;21036;-64
2022/03/17 08:26:44;;;;;;;2.05;1.67;;;;;;;13.17;20.23;101253.11;1688629;85;20950;-64
2022/03/17 08:29:11;;;;;;;1.50;1.30;;;;;;;13.26;20.41;101258.94;1685655;85;22027;-63
2022/03/17 08:31:39;;;;;;;1.98;1.62;;;;;;;13.44;19.59;101249.66;1685306;85;21018;-63
2022/03/17 08:34:06;;;;;;;3.60;1.70;;;;;;;13.47;19.63;101265.42;1685043;85;21263;-63
2022/03/17 08:36:35;;;;;;;9.98;2.08;;;;;;;13.43;19.66;101255.98;1678471;84;21082;-64
2022/03/17 08:39:03;;;;;;;2.55;1.80;;;;;;;13.42;19.64;101241.80;1674641;85;20907;-64
2022/03/17 08:41:30;;;;;;;3.67;1.85;;;;;;;13.46;19.54;101248.53;1681867;84;20986;-65
2022/03/17 08:43:58;;;;;;;2.83;2.00;;;;;;;13.60;19.53;101259.25;1652239;85;21003;-65
2022/03/17 08:49:19;;;;;;;8.98;1.98;;;;;;;13.60;19.22;101241.86;1701134;84;20913;-63
2022/03/17 08:51:50;;;;;;;2.77;2.15;;;;;;;13.59;19.59;101261.56;1701281;84;20890;-65
2022/03/17 08:54:20;;;;;;;3.05;2.42;;;;;;;13.64;19.68;101255.27;1699239;84;21033;-65
2022/03/17 08:56:50;;;;;;;1.80;1.70;;;;;;;13.66;19.64;101257.30;1682705;85;20950;-65
2022/03/17 08:59:17;;;;;;;2.30;1.80;;;;;;;13.58;20.00;101255.89;1681939;85;21470;-64
2022/03/17 09:01:45;;;;;;;6.30;3.05;;;;;;;13.63;19.87;101260.78;1677613;85;20888;-64
2022/03/17 09:04:13;;;;;;;1.98;1.77;;;;;;;13.87;19.83;101251.74;1677318;85;21517;-64
2022/03/17 09:06:43;;;;;;;1.95;1.75;;;;;;;14.17;19.76;101241.55;1682339;85;20994;-63
2022/03/17 09:09:11;;;;;;;2.58;1.80;;;;;;;14.53;19.42;101251.81;1676935;83;20982;-65
2022/03/17 09:11:39;;;;;;;2.45;2.00;;;;;;;14.86;19.30;101244.07;1662694;85;21273;-63
2022/03/17 09:14:07;;;;;;;4.70;2.25;;;;;;;15.21;19.15;101246.17;1666856;85;21080;-65
2022/03/17 09:16:35;;;;;;;3.08;2.47;;;;;;;15.44;19.03;101236.58;1680420;85;21612;-65
2022/03/17 09:19:04;;;;;;;2.98;2.45;;;;;;;15.43;18.38;101247.48;1683218;85;21477;-67
2022/03/17 09:21:32;;;;;;;3.15;2.35;;;;;;;15.20;18.95;101242.31;1684333;83;20967;-65
2022/03/17 09:24:00;;;;;;;2.90;2.60;;;;;;;15.09;18.56;101243.91;1683891;84;21257;-65
2022/03/17 09:26:29;;;;;;;11.75;3.25;;;;;;;15.00;18.88;101244.34;1683717;85;21502;-66
2022/03/17 09:28:57;;;;;;;2.35;2.15;;;;;;;15.00;18.48;101243.48;1683245;84;21048;-65
2022/03/17 09:31:25;;;;;;;4.33;3.65;;;;;;;14.97;18.80;101241.97;1683999;85;21029;-65
2022/03/17 09:33:52;;;;;;;4.50;3.35;;;;;;;15.19;18.65;101236.11;1683670;84;20962;-65
2022/03/17 09:36:19;;;;;;;3.05;2.70;;;;;;;15.52;18.66;101239.84;1676551;85;21415;-66
2022/03/17 09:41:24;;;;;;;2.70;2.37;;;;;;;16.11;17.92;101234.89;1672666;84;21066;-65
2022/03/17 09:43:52;;;;;;;4.35;2.55;;;;;;;16.17;18.25;101237.39;1672897;85;20991;-66
2022/03/17 09:46:21;;;;;;;2.72;2.50;;;;;;;16.30;18.11;101233.73;1636484;87;20979;-66
2022/03/17 09:48:53;;;;;;;2.75;2.47;;;;;;;16.22;18.18;101235.05;1645779;85;21282;-65
2022/03/17 09:51:23;;;;;;;4.55;2.45;;;;;;;16.01;18.02;101232.82;1631982;88;20925;-68
2022/03/17 09:53:53;;;;;;;3.62;2.15;;;;;;;15.74;18.57;101237.95;1680760;85;22085;-67
2022/03/17 09:56:23;;;;;;;2.65;2.45;;;;;;;15.58;18.32;101237.02;1678427;85;21061;-67
2022/03/17 09:58:57;;;;;;;5.90;2.50;;;;;;;15.62;18.42;101234.34;1672486;84;20939;-69
2022/03/17 10:01:29;;;;;;;2.72;2.20;;;;;;;15.71;18.51;101238.27;1679731;84;21844;-68
2022/03/17 10:04:02;;;;;;;2.83;2.15;;;;;;;15.81;17.96;101238.13;1676002;85;21002;-68
2022/03/17 10:06:29;;;;;;;2.50;2.30;;;;;;;15.59;18.51;101252.94;1674031;84;21568;-66
2022/03/17 10:08:59;;;;;;;4.72;2.85;;;;;;;15.55;18.51;101258.30;1669253;84;21047;-67
2022/03/17 10:11:29;;;;;;;2.70;2.30;;;;;;;15.54;18.57;101244.53;1674094;85;20998;-67
2022/03/17 10:13:57;;;;;;;3.83;2.47;;;;;;;15.58;18.62;101259.33;1672068;83;22029;-63
2022/03/17 10:16:25;;;;;;;3.60;2.55;;;;;;;15.10;18.63;101246.42;1683153;84;21009;-71
2022/03/17 10:19:04;;;;;;;3.75;2.67;;;;;;;14.27;19.39;101254.02;1695874;84;21177;-68
2022/03/17 10:21:32;;;;;;;3.47;2.60;;;;;;;13.89;19.95;101250.60;1702945;84;20983;-70
2022/03/17 10:24:07;;;;;;;2.87;2.35;;;;;;;13.71;20.18;101246.19;1683969;84;21062;-70
2022/03/17 10:26:49;;;;;;;3.25;2.25;;;;;;;13.48;20.21;101254.56;1696625;83;22065;-67
2022/03/17 10:29:22;;;;;;;6.65;2.83;;;;;;;13.04;20.32;101260.55;1704185;84;21945;-68
2022/03/17 10:32:05;;;;;;;5.12;2.45;;;;;;;12.63;20.91;101260.39;1703950;84;21002;-68
2022/03/17 10:34:48;;;;;;;2.95;2.55;;;;;;;12.42;21.23;101241.48;1696916;84;20947;-70
2022/03/17 10:37:17;;;;;;;3.58;2.77;;;;;;;12.33;21.40;101244.52;1693183;83;20938;-67
2022/03/17 10:39:49;;;;;;;2.80;2.35;;;;;;;12.13;21.43;101252.97;1685976;85;21264;-67
2022/03/17 10:42:22;;;;;;;4.37;2.40;;;;;;;11.82;21.65;101248.67;1688779;84;20942;-68
2022/03/17 10:45:00;;;;;;;2.27;1.87;;;;;;;11.52;21.37;101244.69;1698632;84;21597;-67
2022/03/17 10:47:42;;;;;;;2.85;2.55;;;;;;;11.29;21.86;101252.50;1702067;84;21506;-68
2022/03/17 10:50:18;;;;;;;2.47;2.12;;;;;;;10.93;22.45;101261.30;1687687;84;20941;-69
2022/03/17 10:52:56;;;;;;;4.05;2.70;;;;;;;10.58;22.61;101247.94;1697506;84;21850;-69
2022/03/17 10:55:29;;;;;;;4.58;2.55;;;;;;;10.52;23.09;101254.61;1688745;85;21426;-68
2022/03/17 10:58:16;;;;;;;3.05;2.30;;;;;;;10.58;23.40;101255.45;1688939;85;20942;-66
2022/03/17 11:00:58;;;;;;;2.55;2.10;;;;;;;10.68;23.33;101251.52;1654637;86;21490;-70
2022/03/17 11:03:25;;;;;;;3.22;2.33;;;;;;;10.62;22.85;101256.02;1701554;84;20893;-70
2022/03/17 11:05:54;;;;;;;2.42;2.17;;;;;;;10.51;22.84;101251.58;1701739;84;20952;-69
2022/03/17 11:08:21;;;;;;;2.40;2.20;;;;;;;10.34;23.33;101242.83;1701595;84;20976;-68
2022/03/17 11:10:50;;;;;;;1.77;1.65;;;;;;;10.21;23.52;101245.66;1701732;84;21025;-68
2022/03/17 11:13:19;;;;;;;2.40;1.82;;;;;;;10.18;23.54;101247.72;1701452;84;21004;-67
2022/03/17 11:16:02;;;;;;;2.12;1.85;;;;;;;10.18;23.57;101236.59;1684641;85;20919;-68
2022/03/17 11:18:34;;;;;;;3.47;2.20;;;;;;;10.27;23.77;101231.84;1688583;84;20906;-68
2022/03/17 11:21:21;;;;;;;4.22;2.45;;;;;;;10.31;23.65;101243.08;1672428;85;20926;-69
2022/03/17 11:23:56;;;;;;;3.20;2.58;;;;;;;10.11;23.59;101239.38;1679747;85;21314;-72
2022/03/17 11:26:41;;;;;;;3.58;2.33;;;;;;;10.02;24.28;101236.59;1664658;85;20966;-70
2022/03/17 11:29:10;;;;;;;3.05;2.40;;;;;;;9.90;24.27;101235.31;1675302;85;20946;-67
2022/03/17 11:32:02;;;;;;;2.58;2.08;;;;;;;9.75;24.85;101238.36;1688835;85;21969;-70
2022/03/17 11:34:48;;;;;;;2.42;2.15;;;;;;;9.66;24.57;101238.59;1688778;85;20965;-68
2022/03/17 11:37:27;;;;;;;4.55;2.05;;;;;;;9.67;24.63;101240.27;1690177;83;20864;-69
2022/03/17 11:40:05;;;;;;;3.00;2.20;;;;;;;9.67;24.69;101237.61;1711474;83;21001;-67
2022/03/17 11:42:47;;;;;;;3.27;2.58;;;;;;;9.66;24.98;101231.11;1708312;83;20931;-70
2022/03/17 11:45:21;;;;;;;2.35;2.00;;;;;;;9.68;24.89;101239.31;1696564;83;21521;-70
2022/03/17 11:47:59;;;;;;;3.22;2.92;;;;;;;9.70;24.60;101240.51;1709113;83;21053;-69
2022/03/17 11:50:38;;;;;;;3.27;2.70;;;;;;;9.63;24.78;101234.85;1710132;83;20899;-67
2022/03/17 11:53:16;;;;;;;4.28;3.08;;;;;;;9.52;25.01;101225.55;1696582;83;21450;-70
2022/03/17 11:55:48;;;;;;;4.00;2.20;;;;;;;9.45;25.07;101227.01;1708063;83;20930;-67
2022/03/17 11:58:30;;;;;;;3.75;2.33;;;;;;;9.44;24.95;101224.48;1712101;83;21446;-67
2022/03/17 12:01:25;;;;;;;3.80;2.50;;;;;;;9.45;25.13;101234.13;1694255;83;37407;-67
2022/03/17 12:03:59;;;;;;;2.50;2.30;;;;;;;9.43;25.14;101218.33;1702479;83;20974;-70
2022/03/17 12:06:28;;;;;;;2.10;1.90;;;;;;;9.40;25.15;101231.84;1710513;83;20911;-69